Aeroporto :







RITROVATECI SU...

 
LOGIN :

Iscrizione | Disclaimer

   EN    FR    IT 

 









Sommario :    VFR   VFR Marginale   IFR   IFR Intensivo   IFR Molto Intensivo
Visibilità : 
Base nubi : 
>= 8 km
>= 3000ft
5 / 8 km
1000 / 3000 ft
1500m / 5 km
500 / 1000 ft
800 / 1500m
200 / 500 ft
< 800m
< 200 ft
Simboli :   Temporali  Nebbia  Neve Forte  Precipitazioni Forti  Vento > 20 kt






- Altitudine del aeroporto : 90 ft
- Codice IATA : YHU


CYHU - Montréal Saint-Hubert

ULTIMO METAR :
  • 040700Z AUTO VRB02KT 9SM CLR 11/10 A2968 RMK SLP051

METARs OBSOLETI :
  • 040600Z AUTO 23005KT 9SM CLR 11/10 A2965 RMK SLP044
  • 040500Z AUTO VRB02KT 9SM CLR 11/10 A2965 RMK SLP041

TAF TAF CYHU
Valido dal 04 a 06 ore il 05 a 06 ore UTC


040540Z 0406/0506 26005KT P6SM SCT040
PROB30 0406/0411 1SM BR
FM041100 24008KT P6SM FEW006 BKN020
PROB30 0411/0413 2SM BR BKN006
FM041300 25010G20KT P6SM BKN030
FM041900 26010G20KT P6SM BKN060
PROB30 0419/0423 2SM TSRA BR BKN030CB
FM042300 26008KT P6SM BKN050
BECMG 0500/0502 VRB03KT RMK FCST BASED ON AUTO OBS. NXT FCST BY 041200Z
FIR CZUL / America del Nord



MetMap, La meteo Aeronautica in un colpo d'occhio ! - Copyright ORBIFLY Dicembre 2007 - Disclaimer

ORBIFLY MET'MAP TEAM :

Programmazione e sviluppo : Alexandra Zaïnal
Concezione : Baudouin d'Aumeries
Aiuto per la programmazione : Marc-Olivier Méhu
Supporto tecnico e logistico : Manuel Goepfert
Aiuto per la traduzione : Arnaldo La Scala

Contatto : metmap@orbifly.com




FONTI E CREDITI :

   NOAA